»·PEaware :: N191TB KLAS-KRNO

N191TB :: KLAS-KRNO

FLIGHT INFORMATION

Flight Status: Arrived
Operator: Privately registered:
United States
More flights under this callsign
Pilot: Tim F. (26756)
Aircraft: ECLIPSE 500
(EA50)
More flights by this aircraft type
Origin: KLAS McCarran Intl
United States
Destination: KRNO Reno/Tahoe Intl
United States
More flights between these airports :: More routes between these airports
Route: +SHEAD1 KENNO RUSME2
File this flight plan on PilotEdge
Remarks:
Altitude:
(Current/Filed)
28,000ft
Speed:
(Current/Filed)
250kts
Departed: 25-Mar-20 09:18 PM
Arrived: 25-Mar-20 10:36 PM
Distance/Time
Traveled:
300nm/1:18
Distance/Time
To Go:
Arrived

Flight Plot

Page will automatically refresh every two minutes.

Flight plan parsing failed; only flown route is shown


Map Options




Map Legend


Flown Route
Filed Route
Departure Airport
Arrival Airport
Navaid (VOR, NDB)
Fix

Horizontal Profiles

Position Reports

Time Latitude Longitude Heading Altitude Ground
Speed
25-Mar-20 20:46 36.081032 -115.170532 89 2169ft 0kts
25-Mar-20 20:47 36.081032 -115.170532 89 2169ft 0kts
25-Mar-20 20:48 36.081032 -115.170532 89 2169ft 0kts
25-Mar-20 20:49 36.081032 -115.170532 89 2169ft 0kts
25-Mar-20 20:50 36.081032 -115.170532 89 2169ft 0kts
25-Mar-20 20:51 36.081032 -115.170532 89 2169ft 0kts
25-Mar-20 20:52 36.081032 -115.170532 89 2169ft 0kts
25-Mar-20 20:53 36.081032 -115.170532 89 2169ft 0kts
25-Mar-20 20:54 36.081032 -115.170532 89 2169ft 0kts
25-Mar-20 20:55 36.081032 -115.170532 89 2169ft 0kts
25-Mar-20 20:56 36.081032 -115.170532 89 2169ft 0kts
25-Mar-20 20:57 36.081032 -115.170532 89 2169ft 0kts
25-Mar-20 20:58 36.081032 -115.170532 89 2169ft 0kts
25-Mar-20 20:59 36.081032 -115.170532 89 2169ft 0kts
25-Mar-20 21:00 36.081032 -115.170532 89 2169ft 0kts
25-Mar-20 21:01 36.081032 -115.170532 89 2169ft 0kts
25-Mar-20 21:02 36.081032 -115.170532 89 2169ft 0kts
25-Mar-20 21:03 36.081032 -115.170532 89 2169ft 0kts
25-Mar-20 21:04 36.081032 -115.170532 89 2169ft 0kts
25-Mar-20 21:05 36.081032 -115.170532 89 2169ft 0kts
25-Mar-20 21:06 36.081032 -115.170532 89 2169ft 0kts
25-Mar-20 21:07 36.081029 -115.170395 92 2168ft 3kts
25-Mar-20 21:08 36.083272 -115.168211 25 2156ft 15kts
25-Mar-20 21:09 36.087262 -115.165933 25 2138ft 12kts
25-Mar-20 21:10 36.089979 -115.164381 24 2125ft 11kts
25-Mar-20 21:11 36.093471 -115.162387 24 2109ft 16kts
25-Mar-20 21:12 36.097295 -115.160208 23 2095ft 10kts
25-Mar-20 21:13 36.099222 -115.158995 68 2090ft 0kts
25-Mar-20 21:14 36.099222 -115.158995 68 2090ft 0kts
25-Mar-20 21:15 36.099222 -115.158995 68 2090ft 0kts
25-Mar-20 21:16 36.098820 -115.157120 126 2086ft 5kts
25-Mar-20 21:17 36.095028 -115.159113 205 2098ft 73kts
25-Mar-20 21:18 36.061439 -115.178621 204 3066ft 177kts
25-Mar-20 21:23 36.080698 -115.170765 89 2170ft 0kts
25-Mar-20 21:24 36.080698 -115.170765 89 2170ft 0kts
25-Mar-20 21:25 36.082540 -115.168670 24 2159ft 22kts
25-Mar-20 21:26 36.090972 -115.163830 25 2121ft 35kts
25-Mar-20 21:27 36.096485 -115.160676 22 2098ft 10kts
25-Mar-20 21:28 36.099367 -115.158606 112 2089ft 1kts
25-Mar-20 21:29 36.099079 -115.157966 118 2088ft 0kts
25-Mar-20 21:30 36.089551 -115.162280 205 2168ft 115kts
25-Mar-20 21:31 36.051391 -115.184755 204 3712ft 199kts
25-Mar-20 21:32 36.001567 -115.233152 241 5332ft 268kts
25-Mar-20 21:33 35.959949 -115.315430 226 6853ft 272kts
25-Mar-20 21:34 35.912995 -115.372288 226 8163ft 269kts
25-Mar-20 21:35 35.886204 -115.452750 269 9668ft 275kts
25-Mar-20 21:36 35.888480 -115.547253 268 11168ft 275kts
25-Mar-20 21:37 35.890389 -115.640899 267 12661ft 272kts
25-Mar-20 21:38 35.892065 -115.735862 265 14438ft 271kts
25-Mar-20 21:39 35.893551 -115.823802 264 16281ft 271kts
25-Mar-20 21:40 35.895026 -115.915541 262 18302ft 264kts
25-Mar-20 21:41 35.918979 -115.999264 304 20311ft 301kts
25-Mar-20 21:42 35.979470 -116.067340 301 22243ft 289kts
25-Mar-20 21:43 36.037296 -116.133632 299 24066ft 279kts
25-Mar-20 21:44 36.092722 -116.197456 296 25886ft 267kts
25-Mar-20 21:45 36.139827 -116.251900 293 27322ft 256kts
25-Mar-20 21:46 36.193357 -116.314409 295 27801ft 286kts
25-Mar-20 21:47 36.255097 -116.386158 297 27802ft 321kts
25-Mar-20 21:48 36.322750 -116.464758 299 27800ft 344kts
25-Mar-20 21:49 36.394037 -116.547808 299 27798ft 358kts
25-Mar-20 21:50 36.467403 -116.633557 300 27796ft 366kts
25-Mar-20 21:51 36.541716 -116.720678 300 27813ft 373kts
25-Mar-20 21:52 36.630070 -116.798213 313 27812ft 401kts
25-Mar-20 21:53 36.725475 -116.870534 313 27821ft 403kts
25-Mar-20 21:54 36.821244 -116.943488 313 27840ft 405kts
25-Mar-20 21:55 36.917374 -117.016972 313 27855ft 405kts
25-Mar-20 21:56 37.013555 -117.090701 313 27870ft 406kts
25-Mar-20 21:57 37.108638 -117.163807 313 27929ft 405kts
25-Mar-20 21:58 37.206107 -117.217284 340 28922ft 400kts
25-Mar-20 21:59 37.298620 -117.264491 283 27992ft 326kts
25-Mar-20 22:01 37.361850 -117.356918 300 27854ft 362kts
25-Mar-20 22:02 37.434008 -117.445597 300 27851ft 363kts
25-Mar-20 22:03 37.498256 -117.523992 307 27837ft 374kts
25-Mar-20 22:04 37.558522 -117.619288 292 27884ft 346kts
25-Mar-20 22:05 37.617260 -117.715961 293 28000ft 350kts
25-Mar-20 22:06 37.677678 -117.813278 293 28000ft 351kts
25-Mar-20 22:07 37.737966 -117.910314 294 27999ft 352kts
25-Mar-20 22:08 37.798989 -118.008821 294 28009ft 361kts
25-Mar-20 22:09 37.861747 -118.110394 295 27839ft 371kts
25-Mar-20 22:10 37.925343 -118.213582 295 27855ft 372kts
25-Mar-20 22:11 37.988407 -118.316230 295 28079ft 369kts
25-Mar-20 22:12 38.051639 -118.419540 295 28081ft 372kts
25-Mar-20 22:13 38.108539 -118.512759 296 28086ft 373kts
25-Mar-20 22:14 38.171603 -118.616385 296 28069ft 373kts
25-Mar-20 22:15 38.234529 -118.720121 296 28124ft 372kts
25-Mar-20 22:16 38.297592 -118.824345 296 27979ft 360kts
25-Mar-20 22:17 38.357142 -118.923212 296 27440ft 352kts
25-Mar-20 22:17 38.406633 -119.005577 297 26549ft 349kts
25-Mar-20 22:19 38.474723 -119.119235 298 25134ft 343kts
25-Mar-20 22:20 38.529512 -119.217398 295 23916ft 336kts
25-Mar-20 22:20 38.572149 -119.299858 296 22906ft 333kts
25-Mar-20 22:21 38.622780 -119.397995 297 21693ft 329kts
25-Mar-20 22:23 38.681162 -119.511496 298 20330ft 325kts
25-Mar-20 22:23 38.724930 -119.589543 320 19437ft 333kts
25-Mar-20 22:24 38.814517 -119.624013 338 18379ft 336kts
25-Mar-20 22:26 38.914187 -119.671697 335 16831ft 320kts
25-Mar-20 22:26 38.981859 -119.705999 335 15738ft 302kts
25-Mar-20 22:27 39.051190 -119.741485 336 14354ft 254kts
25-Mar-20 22:28 39.116914 -119.774786 338 14103ft 254kts
25-Mar-20 22:29 39.186200 -119.784497 11 14108ft 257kts
25-Mar-20 22:30 39.257466 -119.770247 7 13451ft 278kts
25-Mar-20 22:31 39.332957 -119.762761 353 9911ft 257kts
25-Mar-20 22:32 39.395852 -119.769104 357 7363ft 213kts
25-Mar-20 22:33 39.445721 -119.769404 359 5855ft 121kts
25-Mar-20 22:34 39.479015 -119.769338 358 4592ft 106kts
25-Mar-20 22:35 39.497282 -119.769800 292 4404ft 10kts
25-Mar-20 22:36 39.500647 -119.770633 359 4406ft 12kts
25-Mar-20 22:37 39.503417 -119.771511 202 4410ft 0kts
25-Mar-20 22:38 39.503779 -119.773069 241 4410ft 0kts
25-Mar-20 22:39 39.503339 -119.773363 122 4410ft 0kts
25-Mar-20 22:40 39.503339 -119.773363 122 4410ft 0kts
25-Mar-20 22:41 39.503339 -119.773363 122 4410ft 0kts
25-Mar-20 22:42 39.503339 -119.773363 122 4410ft 0kts
25-Mar-20 22:43 39.503339 -119.773363 122 4410ft 0kts

Navigation Log

Ident Type
Flight plan parsing failed, navigation log unavailable